< < Back
Terminal Aerodrome Forecast


Current Version              Previous Versions:   1  2  3  4  5  6  7  8  9  

Terminal Aerodrome Forecast

222
FTUS44 KMRX 251729
TAFTYS
TAF
KTYS 251729Z 2518/2618 34005KT P6SM SCT120 BKN200
     FM260300 01004KT P6SM VCSH SCT070 OVC100
     FM260700 02004KT 3SM -RA BR SCT009 OVC020
     FM261300 VRB04KT P6SM BKN025=



Latest METAR

404
SAUS80 KWBC 261000
MTRTYS
METAR KTYS 260953Z 00000KT 10SM BKN065 OVC095 07/M01 A3001 RMK AO2
SLP160 T00671011


USA.gov is the U.S. government's official web portal to all federal, state and local government web resources and services.